アイウン の空港の天気 - METARとTAF

アイウン/ハッサン空港 ( GMML / EUN ) - 西サハラ アイウン
飛行場実況気象(Metar)
観測時間11/30 17:00 CET (11/30 16:00 UTC)
風向・風速北 8m/s
視程10km以上
天気現象
なし
気温24℃
湿度54%
気圧1015hPa
METARGMML 301600Z 35015KT CAVOK 24/14 Q1015 NOSIG
過去の天気等 Google飛行場航空写真 Wunderground天気予報

過去48時間のMETAR

飛行場予報(TAF)
発表時間: 11/30 12:00 CET (11/30 11:00 UTC)
予報対象時間: 30日13時 CET ~ 1日19時 CET
風向・風速東北東 6m/s
視程8000m
なし
1日1時 CET ~ 1日5時 CET に徐々に
全天の8割程度の雲 雲底高度 180m
1日1時 CET から 確率 40% で
視程2000m
天気現象もや
1日10時 CET ~ 1日12時 CET に徐々に
全天の4割程度の雲 雲底高度 490m
TAF GMML 301100Z 3012/0118 06012KT 8000 NSC
BECMG 0100/0104 BKN006
PROB40 0100/0109 2000 BR
BECMG 0109/0111 SCT016